createdAt,value
2019-03-15T00:03:06.684Z,2.10
2019-03-15T00:08:13.199Z,1.63
2019-03-15T00:13:19.687Z,2.13
2019-03-15T00:18:25.982Z,2.40
2019-03-15T00:23:31.920Z,2.47
2019-03-15T00:28:37.427Z,3.60
2019-03-15T00:33:43.179Z,2.23
2019-03-15T00:38:49.477Z,1.50
2019-03-15T00:43:55.455Z,1.37
2019-03-15T00:49:01.580Z,2.20
2019-03-15T00:54:06.964Z,1.67
2019-03-15T00:59:12.268Z,1.40
2019-03-15T01:04:18.059Z,3.03
2019-03-15T01:09:23.791Z,1.13
2019-03-15T01:14:29.212Z,0.93
2019-03-15T01:19:36.590Z,0.83
2019-03-15T01:24:42.019Z,1.83
2019-03-15T01:29:47.392Z,1.60
2019-03-15T01:34:52.703Z,0.40
2019-03-15T01:39:58.025Z,0.80
2019-03-15T01:45:03.350Z,0.90
2019-03-15T01:50:08.955Z,1.13
2019-03-15T01:55:14.235Z,0.87
2019-03-15T02:00:19.563Z,0.50
2019-03-15T02:05:24.891Z,0.80
2019-03-15T02:10:30.267Z,0.70
2019-03-15T02:15:35.566Z,0.83
2019-03-15T02:20:40.867Z,1.20
2019-03-15T02:25:46.177Z,1.10
2019-03-15T02:30:51.493Z,1.60
2019-03-15T02:35:56.803Z,0.80
2019-03-15T02:41:03.149Z,0.97
2019-03-15T02:46:08.472Z,1.73
2019-03-15T02:51:13.772Z,2.20
2019-03-15T02:56:19.086Z,0.77
2019-03-15T03:01:24.390Z,1.87
2019-03-15T03:06:29.719Z,2.03
2019-03-15T03:11:35.020Z,1.63
2019-03-15T03:16:40.311Z,1.70
2019-03-15T03:21:45.679Z,1.07
2019-03-15T03:26:51.012Z,1.70
2019-03-15T03:31:56.348Z,2.00
2019-03-15T03:37:01.683Z,1.20
2019-03-15T03:42:07.365Z,1.33
2019-03-15T03:47:12.803Z,0.70
2019-03-15T03:52:18.138Z,0.60
2019-03-15T03:57:23.447Z,1.50
2019-03-15T04:02:28.852Z,1.77
2019-03-15T04:07:34.252Z,1.17
2019-03-15T04:12:39.778Z,1.60
2019-03-15T04:17:45.071Z,1.83
2019-03-15T04:22:50.509Z,1.90
2019-03-15T04:27:55.966Z,1.10
2019-03-15T04:33:01.321Z,1.67
2019-03-15T04:38:06.715Z,0.70
2019-03-15T04:43:12.082Z,2.30
2019-03-15T04:48:17.331Z,1.30
2019-03-15T04:53:22.645Z,2.23
2019-03-15T04:58:28.044Z,0.77
2019-03-15T05:03:34.434Z,1.97
2019-03-15T05:08:39.816Z,2.63
2019-03-15T05:13:45.173Z,3.87
2019-03-15T05:18:50.577Z,2.93
2019-03-15T05:23:55.912Z,3.13
2019-03-15T05:29:01.243Z,2.63
2019-03-15T05:34:06.551Z,2.07
2019-03-15T05:39:11.852Z,3.23
2019-03-15T05:44:17.264Z,3.13
2019-03-15T05:49:22.587Z,2.33
2019-03-15T05:54:27.923Z,3.73
2019-03-15T05:59:33.271Z,2.90
2019-03-15T06:04:38.610Z,3.33
2019-03-15T06:09:43.965Z,4.00
2019-03-15T06:14:49.292Z,1.70
2019-03-15T06:19:54.632Z,3.97
2019-03-15T06:24:59.974Z,3.50
2019-03-15T06:30:05.726Z,2.13
2019-03-15T06:35:11.068Z,1.87
2019-03-15T06:40:16.703Z,1.37
2019-03-15T06:45:22.003Z,1.27
2019-03-15T06:50:27.515Z,1.97
2019-03-15T06:55:33.151Z,1.23
2019-03-15T07:00:38.536Z,1.93
2019-03-15T07:05:44.067Z,1.07
2019-03-15T07:10:49.430Z,2.00
2019-03-15T07:15:55.392Z,1.53
2019-03-15T07:21:02.312Z,1.27
2019-03-15T07:26:07.629Z,1.90
2019-03-15T07:31:13.238Z,1.73
2019-03-15T07:36:19.468Z,2.13
2019-03-15T07:41:25.580Z,1.70
2019-03-15T07:46:31.303Z,1.73
2019-03-15T07:51:37.818Z,1.90
2019-03-15T07:56:43.455Z,2.83
2019-03-15T08:01:49.188Z,1.63
2019-03-15T08:06:55.428Z,2.23
2019-03-15T08:12:01.095Z,2.70
2019-03-15T08:17:07.219Z,3.40
2019-03-15T08:22:12.946Z,2.30
2019-03-15T08:27:18.231Z,1.40
2019-03-15T08:32:23.526Z,1.90
2019-03-15T08:37:28.829Z,1.60
2019-03-15T08:42:34.827Z,1.87
2019-03-15T08:47:40.211Z,1.13
2019-03-15T08:52:45.533Z,1.27
2019-03-15T08:57:50.819Z,2.23
2019-03-15T09:02:56.127Z,1.57
2019-03-15T09:08:01.428Z,1.60
2019-03-15T09:13:06.742Z,0.83
2019-03-15T09:18:12.043Z,2.03
2019-03-15T09:23:17.349Z,2.10
2019-03-15T09:28:22.676Z,2.63
2019-03-15T09:33:28.043Z,1.57
2019-03-15T09:38:33.376Z,2.83
2019-03-15T09:43:38.692Z,1.90
2019-03-15T09:48:44.094Z,2.20
2019-03-15T09:53:49.318Z,2.83
2019-03-15T09:58:54.643Z,1.97
2019-03-15T10:03:59.964Z,1.83
2019-03-15T10:09:07.279Z,2.30
2019-03-15T10:14:12.628Z,0.73
2019-03-15T10:19:17.951Z,1.60
2019-03-15T10:24:25.220Z,1.50
2019-03-15T10:29:32.592Z,0.57
2019-03-15T10:34:38.068Z,0.80
2019-03-15T10:39:43.466Z,1.30
2019-03-15T10:44:49.909Z,0.50
2019-03-15T10:49:55.272Z,0.40
2019-03-15T10:55:02.184Z,0.40
2019-03-15T11:00:10.311Z,0.30
2019-03-15T11:05:15.903Z,0.50
2019-03-15T11:10:21.330Z,0.60
2019-03-15T11:15:26.650Z,1.03
2019-03-15T11:20:32.039Z,0.70
2019-03-15T11:25:37.830Z,0.50
2019-03-15T11:30:43.727Z,2.57
2019-03-15T11:35:49.419Z,1.13
2019-03-15T11:40:54.728Z,1.20
2019-03-15T11:46:00.826Z,0.47
2019-03-15T11:51:07.225Z,0.40
2019-03-15T11:56:26.161Z,0.20
2019-03-15T12:01:20.252Z,0.50
2019-03-15T12:06:25.627Z,1.13
2019-03-15T12:11:31.348Z,0.97
2019-03-15T12:16:37.192Z,2.07
2019-03-15T12:21:42.573Z,0.80
2019-03-15T12:26:47.887Z,1.07
2019-03-15T12:31:54.483Z,1.00
2019-03-15T12:36:59.831Z,0.33
2019-03-15T12:42:05.172Z,0.73
2019-03-15T12:47:10.521Z,1.23
2019-03-15T12:52:15.856Z,0.60
2019-03-15T12:57:21.183Z,0.90
2019-03-15T13:02:26.515Z,0.60
2019-03-15T13:07:31.891Z,1.77
2019-03-15T13:12:37.163Z,1.10
2019-03-15T13:17:42.491Z,0.93
2019-03-15T13:22:47.876Z,1.57
2019-03-15T13:27:53.228Z,2.07
2019-03-15T13:32:58.555Z,1.93
2019-03-15T13:38:04.431Z,1.63
2019-03-15T13:43:09.753Z,2.30
2019-03-15T13:48:15.062Z,3.00
2019-03-15T13:53:20.375Z,1.67
2019-03-15T13:58:25.980Z,2.10
2019-03-15T14:03:32.507Z,4.30
2019-03-15T14:08:37.972Z,3.67
2019-03-15T14:13:43.267Z,2.77
2019-03-15T14:18:48.571Z,2.57
2019-03-15T14:23:53.895Z,4.70
2019-03-15T14:28:59.448Z,3.30
2019-03-15T14:34:04.789Z,3.37
2019-03-15T14:39:10.247Z,5.47
2019-03-15T14:44:18.253Z,4.03
2019-03-15T14:49:22.435Z,2.70
2019-03-15T14:54:27.760Z,2.20
2019-03-15T14:59:33.189Z,2.00
2019-03-15T15:04:38.548Z,1.27
2019-03-15T15:09:43.804Z,2.43
2019-03-15T15:14:49.166Z,2.77
2019-03-15T15:19:54.470Z,1.40
2019-03-15T15:24:59.791Z,1.50
2019-03-15T15:30:05.375Z,2.90
2019-03-15T15:35:10.951Z,2.00
2019-03-15T15:40:16.336Z,1.30
2019-03-15T15:45:21.624Z,2.23
2019-03-15T15:50:27.001Z,3.07
2019-03-15T15:55:32.309Z,2.03
2019-03-15T16:00:37.637Z,2.90
2019-03-15T16:05:43.193Z,3.00
2019-03-15T16:10:48.534Z,2.87
2019-03-15T16:15:53.931Z,1.30
2019-03-15T16:20:59.292Z,1.87
2019-03-15T16:26:04.644Z,1.70
2019-03-15T16:31:10.011Z,1.77
2019-03-15T16:36:15.367Z,1.83
2019-03-15T16:41:20.673Z,1.63
2019-03-15T16:46:26.249Z,0.97
2019-03-15T16:51:31.528Z,1.70
2019-03-15T16:56:36.839Z,2.03
2019-03-15T17:01:42.403Z,1.40
2019-03-15T17:06:47.799Z,0.67
2019-03-15T17:11:53.098Z,0.67
2019-03-15T17:16:58.368Z,1.40
2019-03-15T17:22:03.731Z,2.10
2019-03-15T17:27:09.440Z,1.57
2019-03-15T17:32:14.844Z,1.90
2019-03-15T17:37:20.203Z,2.10
2019-03-15T17:42:25.519Z,1.10
2019-03-15T17:47:30.919Z,1.20
2019-03-15T17:52:36.290Z,0.50
2019-03-15T17:57:41.580Z,0.60
2019-03-15T18:02:46.900Z,0.57
2019-03-15T18:07:52.204Z,0.40
2019-03-15T18:12:57.535Z,0.60
2019-03-15T18:18:02.837Z,0.80
2019-03-15T18:23:08.130Z,1.53
2019-03-15T18:28:13.515Z,1.40
2019-03-15T18:33:19.027Z,0.80
2019-03-15T18:38:24.336Z,1.50
2019-03-15T18:43:29.656Z,1.50
2019-03-15T18:48:34.992Z,0.93
2019-03-15T18:53:41.102Z,1.10
2019-03-15T18:58:46.483Z,1.00
2019-03-15T19:03:51.744Z,1.10
2019-03-15T19:08:57.060Z,0.80
2019-03-15T19:14:03.421Z,0.63
2019-03-15T19:19:08.784Z,0.57
2019-03-15T19:24:14.308Z,0.50
2019-03-15T19:29:19.620Z,1.20
2019-03-15T19:34:27.305Z,0.80
2019-03-15T19:39:32.959Z,1.60
2019-03-15T19:44:39.336Z,1.53
2019-03-15T19:49:46.068Z,2.27
2019-03-15T19:55:00.449Z,1.90
2019-03-15T20:00:07.477Z,2.13
2019-03-15T20:05:08.092Z,2.03
2019-03-15T20:10:16.427Z,1.70
2019-03-15T20:15:20.648Z,2.50
2019-03-15T20:20:26.052Z,1.60
2019-03-15T20:25:31.487Z,1.80
2019-03-15T20:30:36.942Z,2.10
2019-03-15T20:35:42.284Z,2.40
2019-03-15T20:40:49.622Z,1.67
2019-03-15T20:45:55.788Z,1.80
2019-03-15T20:51:02.194Z,1.57
2019-03-15T20:56:08.231Z,1.53
2019-03-15T21:01:14.954Z,1.60
2019-03-15T21:06:21.257Z,1.73
2019-03-15T21:11:27.463Z,1.80
2019-03-15T21:16:33.651Z,1.63
2019-03-15T21:21:39.016Z,2.13
2019-03-15T21:26:45.171Z,2.43
2019-03-15T21:31:51.464Z,2.07
2019-03-15T21:36:57.043Z,2.37
2019-03-15T21:42:03.630Z,3.03
2019-03-15T21:47:11.996Z,3.20
2019-03-15T21:52:17.811Z,1.90
2019-03-15T21:57:24.427Z,3.20
2019-03-15T22:02:32.408Z,2.90
2019-03-15T22:07:37.857Z,2.40
2019-03-15T22:12:44.647Z,2.73
2019-03-15T22:17:51.186Z,2.50
2019-03-15T22:22:56.765Z,1.80
2019-03-15T22:28:02.987Z,2.03
2019-03-15T22:33:09.667Z,1.77
2019-03-15T22:38:26.227Z,1.83
2019-03-15T22:43:25.036Z,2.33
2019-03-15T22:48:30.920Z,1.57
2019-03-15T22:53:36.383Z,1.67
2019-03-15T22:58:41.932Z,1.70
2019-03-15T23:03:47.236Z,1.03
2019-03-15T23:08:52.593Z,1.37
2019-03-15T23:13:57.997Z,2.23
2019-03-15T23:19:03.407Z,1.50
2019-03-15T23:24:08.713Z,1.63
2019-03-15T23:29:14.311Z,1.00
2019-03-15T23:34:20.813Z,1.40
2019-03-15T23:39:26.139Z,1.17
2019-03-15T23:44:31.439Z,1.40
2019-03-15T23:49:36.832Z,1.37
2019-03-15T23:54:42.245Z,1.03
2019-03-15T23:59:47.810Z,1.27
